Alexander, AR

6:56 PM CDT on May 27, 2015 (GMT -0500)
Vimy Ridge Community | | Change Station
CLOSE
Current Station
Personal Weather Station
Location: Mabelvale, AR
Elevation: 374 ft
Nearby Weather Stations

Elev 374 ft 34.60 °N, 92.40 °W | Updated 5 minutes ago

Partly Cloudy
Partly Cloudy
81.7 °F
Feels Like 86 °F
N
0.0
Wind Variable Wind from NW
Gusts 0.0 mph

Today
High -- | Low -- °F
--% Chance of Precip.
Yesterday
High -- | Low -- °F
Precip. -- in
6:00 AM 8:14 PM
Waxing Gibbous, 71% visible
Pressure 30.05 in
Visibility 10.0 miles
Clouds Scattered Clouds 4200 ft
Scattered Clouds 25000 ft
Heat Index 86 °F
Dew Point 72 °F
Humidity 72%
Rainfall 0.00 in
Snow Depth Not available.
UV 2 out of 12
Pollen 7.40 out of 12
Air Quality Not available.
Flu Activity No Activity
METAR KLIT 272253Z 16007KT 10SM SCT042 SCT250 29/18 A3005 RMK AO2 SLP176 T02890183

More Conditions Fewer Conditions

Pressure 30.05 in
Visibility 10.0 miles
Clouds Scattered Clouds 4200 ft
Scattered Clouds 25000 ft
Heat Index 86 °F
Dew Point 72 °F
Humidity 72%
Rainfall 0.00 in
Snow Depth Not available.
UV 2 out of 12
Pollen 7.40 out of 12
Air Quality Not available.
Flu Activity No Activity
METAR KLIT 272253Z 16007KT 10SM SCT042 SCT250 29/18 A3005 RMK AO2 SLP176 T02890183

More Conditions Fewer Conditions

10-Day Weather Forecast

Almanac

Astronomy

May. 27, 2015 Rise Set
Actual Time
Civil Twilight
Nautical Twilight
Astronomical Twilight
Moon
Length of Visible Light
Length of Day
Tomorrow will be .
, % of the Moon is Illuminated

Today's Extremes

State Highs State Lows

Community

WunderPhotos

Upload Photos

1,824,825 photos uploaded!

WunderBlogs® & News

Nearby

Air Quality

  Air Quality AQ Index Pollutant
Not available.

Snow Depth

Station Depth Elevation

Earthquake Activity

City Distance Mag. Time & Date
Minimum magnitude displayed is 2.5.

Coastal Water Temperatures

Place Temperature

Stations

Nearby Weather Stations

Station Location Temp. Windchill Dew Point Humidity Wind Precip. Elev Updated Type